sensor_id;sensor_type;location;lat;lon;timestamp;pressure;altitude;pressure_sealevel;temperature;humidity
48874;BME280;66155;46.204;5.220;2024-01-07T00:00:21;98056.22;;;4.07;78.88
48874;BME280;66155;46.204;5.220;2024-01-07T00:05:22;98062.09;;;4.05;80.52
48874;BME280;66155;46.204;5.220;2024-01-07T00:10:22;98056.53;;;4.09;79.36
48874;BME280;66155;46.204;5.220;2024-01-07T00:15:23;98064.28;;;4.14;79.11
48874;BME280;66155;46.204;5.220;2024-01-07T00:20:27;98065.06;;;4.14;79.42
48874;BME280;66155;46.204;5.220;2024-01-07T00:25:27;98055.97;;;4.17;79.59
48874;BME280;66155;46.204;5.220;2024-01-07T00:30:27;98052.81;;;4.19;79.28
48874;BME280;66155;46.204;5.220;2024-01-07T00:35:28;98053.94;;;4.21;79.11
48874;BME280;66155;46.204;5.220;2024-01-07T00:40:28;98055.06;;;4.24;79.56
48874;BME280;66155;46.204;5.220;2024-01-07T00:45:29;98049.59;;;4.24;80.68
48874;BME280;66155;46.204;5.220;2024-01-07T00:50:29;98048.81;;;4.23;79.79
48874;BME280;66155;46.204;5.220;2024-01-07T00:55:30;98064.81;;;4.25;79.84
48874;BME280;66155;46.204;5.220;2024-01-07T01:00:30;98053.94;;;4.21;80.17
48874;BME280;66155;46.204;5.220;2024-01-07T01:05:31;98060.56;;;4.24;80.01
48874;BME280;66155;46.204;5.220;2024-01-07T01:10:31;98069.56;;;4.25;80.16
48874;BME280;66155;46.204;5.220;2024-01-07T01:15:32;98060.47;;;4.28;80.04
48874;BME280;66155;46.204;5.220;2024-01-07T01:20:32;98070.19;;;4.32;80.01
48874;BME280;66155;46.204;5.220;2024-01-07T01:25:32;98064.34;;;4.30;80.30
48874;BME280;66155;46.204;5.220;2024-01-07T01:30:33;98078.75;;;4.34;80.54
48874;BME280;66155;46.204;5.220;2024-01-07T01:35:33;98071.00;;;4.29;80.64
48874;BME280;66155;46.204;5.220;2024-01-07T01:40:34;98069.03;;;4.30;80.61
48874;BME280;66155;46.204;5.220;2024-01-07T01:45:37;98071.69;;;4.33;80.33
48874;BME280;66155;46.204;5.220;2024-01-07T01:50:38;98068.97;;;4.33;80.39
48874;BME280;66155;46.204;5.220;2024-01-07T01:55:38;98067.06;;;4.30;80.08
48874;BME280;66155;46.204;5.220;2024-01-07T02:00:40;98085.56;;;4.26;80.76
48874;BME280;66155;46.204;5.220;2024-01-07T02:05:40;98089.84;;;4.27;80.69
48874;BME280;66155;46.204;5.220;2024-01-07T02:10:41;98090.19;;;4.29;80.44
48874;BME280;66155;46.204;5.220;2024-01-07T02:15:42;98097.59;;;4.32;80.43
48874;BME280;66155;46.204;5.220;2024-01-07T02:20:43;98080.09;;;4.26;81.02
48874;BME280;66155;46.204;5.220;2024-01-07T02:25:43;98081.34;;;4.21;80.55
48874;BME280;66155;46.204;5.220;2024-01-07T02:30:43;98080.66;;;4.17;80.45
48874;BME280;66155;46.204;5.220;2024-01-07T02:35:44;98085.72;;;4.19;81.27
48874;BME280;66155;46.204;5.220;2024-01-07T02:40:44;98096.69;;;4.19;80.94
48874;BME280;66155;46.204;5.220;2024-01-07T02:45:45;98101.75;;;4.20;80.73
48874;BME280;66155;46.204;5.220;2024-01-07T02:50:45;98090.50;;;4.15;80.82
48874;BME280;66155;46.204;5.220;2024-01-07T02:55:46;98103.78;;;4.16;80.30
48874;BME280;66155;46.204;5.220;2024-01-07T03:00:46;98085.50;;;4.10;80.40
48874;BME280;66155;46.204;5.220;2024-01-07T03:05:47;98096.59;;;4.03;80.28
48874;BME280;66155;46.204;5.220;2024-01-07T03:10:48;98079.47;;;3.99;80.48
48874;BME280;66155;46.204;5.220;2024-01-07T03:15:49;98081.13;;;3.93;80.83
48874;BME280;66155;46.204;5.220;2024-01-07T03:20:49;98100.69;;;3.95;80.70
48874;BME280;66155;46.204;5.220;2024-01-07T03:25:51;98096.94;;;3.85;80.70
48874;BME280;66155;46.204;5.220;2024-01-07T03:30:51;98098.91;;;3.85;80.35
48874;BME280;66155;46.204;5.220;2024-01-07T03:35:52;98101.69;;;3.81;80.07
48874;BME280;66155;46.204;5.220;2024-01-07T03:40:52;98097.44;;;3.80;79.99
48874;BME280;66155;46.204;5.220;2024-01-07T03:45:53;98107.69;;;3.76;80.21
48874;BME280;66155;46.204;5.220;2024-01-07T03:50:53;98092.22;;;3.66;80.01
48874;BME280;66155;46.204;5.220;2024-01-07T03:55:53;98120.91;;;3.58;80.08
48874;BME280;66155;46.204;5.220;2024-01-07T04:00:54;98110.00;;;3.54;79.80
48874;BME280;66155;46.204;5.220;2024-01-07T04:05:55;98119.84;;;3.52;80.07
48874;BME280;66155;46.204;5.220;2024-01-07T04:10:56;98114.72;;;3.54;79.83
48874;BME280;66155;46.204;5.220;2024-01-07T04:15:57;98109.72;;;3.49;79.93
48874;BME280;66155;46.204;5.220;2024-01-07T04:20:57;98116.41;;;3.48;79.73
48874;BME280;66155;46.204;5.220;2024-01-07T04:25:58;98146.50;;;3.48;80.00
48874;BME280;66155;46.204;5.220;2024-01-07T04:30:59;98136.75;;;3.47;79.84
48874;BME280;66155;46.204;5.220;2024-01-07T04:35:59;98131.28;;;3.47;79.59
48874;BME280;66155;46.204;5.220;2024-01-07T04:41:01;98141.13;;;3.41;79.82
48874;BME280;66155;46.204;5.220;2024-01-07T04:46:01;98127.09;;;3.39;79.84
48874;BME280;66155;46.204;5.220;2024-01-07T04:51:02;98122.81;;;3.38;79.54
48874;BME280;66155;46.204;5.220;2024-01-07T04:56:02;98123.66;;;3.35;79.76
48874;BME280;66155;46.204;5.220;2024-01-07T05:01:03;98128.41;;;3.31;79.81
48874;BME280;66155;46.204;5.220;2024-01-07T05:06:04;98131.19;;;3.27;79.74
48874;BME280;66155;46.204;5.220;2024-01-07T05:11:04;98141.78;;;3.25;80.02
48874;BME280;66155;46.204;5.220;2024-01-07T05:16:05;98150.69;;;3.29;79.69
48874;BME280;66155;46.204;5.220;2024-01-07T05:21:05;98141.72;;;3.28;79.57
48874;BME280;66155;46.204;5.220;2024-01-07T05:26:06;98150.75;;;3.25;79.78
48874;BME280;66155;46.204;5.220;2024-01-07T05:31:14;98162.84;;;3.28;79.72
48874;BME280;66155;46.204;5.220;2024-01-07T05:36:15;98152.00;;;3.21;79.78
48874;BME280;66155;46.204;5.220;2024-01-07T05:41:15;98171.53;;;3.23;79.78
48874;BME280;66155;46.204;5.220;2024-01-07T05:46:16;98168.00;;;3.22;79.52
48874;BME280;66155;46.204;5.220;2024-01-07T05:51:16;98155.91;;;3.20;79.33
48874;BME280;66155;46.204;5.220;2024-01-07T05:56:17;98166.13;;;3.19;79.54
48874;BME280;66155;46.204;5.220;2024-01-07T06:01:21;98177.41;;;3.21;79.57
48874;BME280;66155;46.204;5.220;2024-01-07T06:06:22;98182.53;;;3.19;79.79
48874;BME280;66155;46.204;5.220;2024-01-07T06:11:22;98182.09;;;3.21;79.40
48874;BME280;66155;46.204;5.220;2024-01-07T06:16:23;98188.47;;;3.14;79.44
48874;BME280;66155;46.204;5.220;2024-01-07T06:21:23;98188.47;;;3.14;79.47
48874;BME280;66155;46.204;5.220;2024-01-07T06:26:24;98183.03;;;3.11;79.38
48874;BME280;66155;46.204;5.220;2024-01-07T06:31:24;98183.44;;;3.09;79.73
48874;BME280;66155;46.204;5.220;2024-01-07T06:36:25;98196.78;;;3.07;79.42
48874;BME280;66155;46.204;5.220;2024-01-07T06:41:25;98201.81;;;3.09;79.50
48874;BME280;66155;46.204;5.220;2024-01-07T06:46:26;98211.25;;;3.04;79.77
48874;BME280;66155;46.204;5.220;2024-01-07T06:51:26;98203.00;;;3.08;79.73
48874;BME280;66155;46.204;5.220;2024-01-07T06:56:27;98215.22;;;3.00;79.93
48874;BME280;66155;46.204;5.220;2024-01-07T07:01:27;98217.47;;;3.08;79.62
48874;BME280;66155;46.204;5.220;2024-01-07T07:06:28;98226.38;;;3.12;79.43
48874;BME280;66155;46.204;5.220;2024-01-07T07:11:28;98224.38;;;3.16;79.45
48874;BME280;66155;46.204;5.220;2024-01-07T07:16:28;98231.50;;;3.10;79.90
48874;BME280;66155;46.204;5.220;2024-01-07T07:21:29;98232.75;;;3.06;79.39
48874;BME280;66155;46.204;5.220;2024-01-07T07:26:29;98233.19;;;3.01;79.92
48874;BME280;66155;46.204;5.220;2024-01-07T07:31:30;98255.53;;;2.96;80.19
48874;BME280;66155;46.204;5.220;2024-01-07T07:36:30;98248.88;;;2.97;80.05
48874;BME280;66155;46.204;5.220;2024-01-07T07:41:31;98249.59;;;3.01;79.58
48874;BME280;66155;46.204;5.220;2024-01-07T07:46:31;98245.38;;;2.96;79.94
48874;BME280;66155;46.204;5.220;2024-01-07T07:51:32;98251.63;;;2.97;79.78
48874;BME280;66155;46.204;5.220;2024-01-07T07:56:32;98269.94;;;3.00;79.65
48874;BME280;66155;46.204;5.220;2024-01-07T08:01:33;98275.09;;;2.94;79.90
48874;BME280;66155;46.204;5.220;2024-01-07T08:06:33;98266.91;;;2.94;80.22
48874;BME280;66155;46.204;5.220;2024-01-07T08:11:34;98268.41;;;2.99;80.04
48874;BME280;66155;46.204;5.220;2024-01-07T08:16:34;98261.00;;;2.96;80.28
48874;BME280;66155;46.204;5.220;2024-01-07T08:21:35;98278.56;;;2.98;79.83
48874;BME280;66155;46.204;5.220;2024-01-07T08:26:35;98272.31;;;2.98;80.00
48874;BME280;66155;46.204;5.220;2024-01-07T08:31:35;98286.34;;;3.00;79.96
48874;BME280;66155;46.204;5.220;2024-01-07T08:36:36;98280.47;;;3.01;80.00
48874;BME280;66155;46.204;5.220;2024-01-07T08:41:36;98285.56;;;3.03;79.79
48874;BME280;66155;46.204;5.220;2024-01-07T08:46:37;98298.75;;;3.08;79.57
48874;BME280;66155;46.204;5.220;2024-01-07T08:51:37;98295.63;;;3.09;79.72
48874;BME280;66155;46.204;5.220;2024-01-07T08:56:38;98296.13;;;3.01;80.26
48874;BME280;66155;46.204;5.220;2024-01-07T09:01:39;98308.22;;;3.00;80.35
48874;BME280;66155;46.204;5.220;2024-01-07T09:06:40;98298.13;;;2.97;80.05
48874;BME280;66155;46.204;5.220;2024-01-07T09:11:40;98307.09;;;2.97;80.25
48874;BME280;66155;46.204;5.220;2024-01-07T09:16:41;98315.34;;;2.94;80.25
48874;BME280;66155;46.204;5.220;2024-01-07T09:21:43;98314.97;;;2.95;80.40
48874;BME280;66155;46.204;5.220;2024-01-07T09:26:43;98318.44;;;2.99;80.11
48874;BME280;66155;46.204;5.220;2024-01-07T09:31:44;98316.81;;;3.02;80.07
48874;BME280;66155;46.204;5.220;2024-01-07T09:36:44;98329.38;;;2.99;80.05
48874;BME280;66155;46.204;5.220;2024-01-07T09:41:45;98311.41;;;2.98;80.20
48874;BME280;66155;46.204;5.220;2024-01-07T09:46:46;98315.25;;;3.01;80.48
48874;BME280;66155;46.204;5.220;2024-01-07T09:51:53;98321.50;;;3.01;79.94
48874;BME280;66155;46.204;5.220;2024-01-07T09:57:04;98314.53;;;2.97;80.17
48874;BME280;66155;46.204;5.220;2024-01-07T10:02:07;98314.56;;;2.93;80.94
48874;BME280;66155;46.204;5.220;2024-01-07T10:07:07;98319.25;;;2.93;80.93
48874;BME280;66155;46.204;5.220;2024-01-07T10:12:08;98324.75;;;2.93;80.59
48874;BME280;66155;46.204;5.220;2024-01-07T10:17:15;98336.41;;;2.97;80.58
48874;BME280;66155;46.204;5.220;2024-01-07T10:22:19;98327.00;;;3.01;80.38
48874;BME280;66155;46.204;5.220;2024-01-07T10:27:22;98330.13;;;3.00;80.59
48874;BME280;66155;46.204;5.220;2024-01-07T10:32:22;98318.38;;;3.03;80.20
48874;BME280;66155;46.204;5.220;2024-01-07T10:37:23;98327.69;;;3.09;80.20
48874;BME280;66155;46.204;5.220;2024-01-07T10:42:24;98319.47;;;3.09;80.19
48874;BME280;66155;46.204;5.220;2024-01-07T10:47:29;98315.56;;;3.10;80.08
48874;BME280;66155;46.204;5.220;2024-01-07T10:52:32;98309.63;;;3.15;80.00
48874;BME280;66155;46.204;5.220;2024-01-07T10:57:48;98321.34;;;3.15;80.23
48874;BME280;66155;46.204;5.220;2024-01-07T11:08:06;98325.28;;;3.14;80.24
48874;BME280;66155;46.204;5.220;2024-01-07T11:13:08;98317.00;;;3.18;79.96
48874;BME280;66155;46.204;5.220;2024-01-07T11:18:17;98323.31;;;3.15;80.30
48874;BME280;66155;46.204;5.220;2024-01-07T11:23:32;98320.94;;;3.17;79.92
48874;BME280;66155;46.204;5.220;2024-01-07T11:28:44;98317.00;;;3.18;79.95
48874;BME280;66155;46.204;5.220;2024-01-07T11:33:46;98308.13;;;3.10;80.24
48874;BME280;66155;46.204;5.220;2024-01-07T11:38:48;98307.28;;;3.13;80.19
48874;BME280;66155;46.204;5.220;2024-01-07T11:43:56;98305.44;;;3.07;80.43
48874;BME280;66155;46.204;5.220;2024-01-07T11:48:59;98320.69;;;3.04;80.68
48874;BME280;66155;46.204;5.220;2024-01-07T11:54:00;98308.16;;;3.07;80.50
48874;BME280;66155;46.204;5.220;2024-01-07T11:59:01;98294.50;;;3.07;80.31
48874;BME280;66155;46.204;5.220;2024-01-07T12:04:01;98304.69;;;3.03;80.67
48874;BME280;66155;46.204;5.220;2024-01-07T12:09:02;98293.88;;;2.92;80.85
48874;BME280;66155;46.204;5.220;2024-01-07T12:14:03;98300.94;;;2.90;80.84
48874;BME280;66155;46.204;5.220;2024-01-07T12:19:04;98300.22;;;2.86;81.07
48874;BME280;66155;46.204;5.220;2024-01-07T12:24:05;98292.75;;;2.90;81.12
48874;BME280;66155;46.204;5.220;2024-01-07T12:29:05;98296.28;;;2.87;81.44
48874;BME280;66155;46.204;5.220;2024-01-07T12:34:07;98302.16;;;2.85;81.31
48874;BME280;66155;46.204;5.220;2024-01-07T12:39:07;98301.38;;;2.85;81.42
48874;BME280;66155;46.204;5.220;2024-01-07T12:44:08;98297.47;;;2.86;81.51
48874;BME280;66155;46.204;5.220;2024-01-07T12:49:09;98302.91;;;2.89;81.80
48874;BME280;66155;46.204;5.220;2024-01-07T12:54:09;98293.91;;;2.89;81.56
48874;BME280;66155;46.204;5.220;2024-01-07T12:59:10;98295.09;;;2.88;81.40
48874;BME280;66155;46.204;5.220;2024-01-07T13:04:10;98312.25;;;2.92;81.75
48874;BME280;66155;46.204;5.220;2024-01-07T13:09:11;98297.38;;;2.93;81.50
48874;BME280;66155;46.204;5.220;2024-01-07T13:14:11;98315.00;;;2.88;81.53
48874;BME280;66155;46.204;5.220;2024-01-07T13:19:12;98302.16;;;2.85;82.20
48874;BME280;66155;46.204;5.220;2024-01-07T13:24:12;98296.69;;;2.85;82.03
48874;BME280;66155;46.204;5.220;2024-01-07T13:29:13;98295.91;;;2.85;81.92
48874;BME280;66155;46.204;5.220;2024-01-07T13:34:13;98315.06;;;3.18;81.58
48874;BME280;66155;46.204;5.220;2024-01-07T13:39:14;98311.50;;;3.21;81.07
48874;BME280;66155;46.204;5.220;2024-01-07T13:44:16;98293.28;;;3.08;81.40
48874;BME280;66155;46.204;5.220;2024-01-07T13:49:19;98300.50;;;3.25;81.14
48874;BME280;66155;46.204;5.220;2024-01-07T13:54:21;98303.28;;;3.21;81.10
48874;BME280;66155;46.204;5.220;2024-01-07T13:59:21;98302.94;;;3.16;80.93
48874;BME280;66155;46.204;5.220;2024-01-07T14:04:23;98311.34;;;3.02;81.26
48874;BME280;66155;46.204;5.220;2024-01-07T14:09:25;98304.00;;;2.95;81.74
48874;BME280;66155;46.204;5.220;2024-01-07T14:14:25;98325.53;;;2.93;81.72
48874;BME280;66155;46.204;5.220;2024-01-07T14:19:26;98332.53;;;2.94;81.76
48874;BME280;66155;46.204;5.220;2024-01-07T14:24:26;98317.31;;;2.93;81.46
48874;BME280;66155;46.204;5.220;2024-01-07T14:29:27;98320.09;;;2.90;81.56
48874;BME280;66155;46.204;5.220;2024-01-07T14:34:27;98318.53;;;2.89;81.62
48874;BME280;66155;46.204;5.220;2024-01-07T14:39:27;98333.38;;;2.91;81.63
48874;BME280;66155;46.204;5.220;2024-01-07T14:44:28;98323.19;;;2.92;81.90
48874;BME280;66155;46.204;5.220;2024-01-07T14:49:28;98322.16;;;3.12;81.24
48874;BME280;66155;46.204;5.220;2024-01-07T14:54:29;98322.19;;;3.09;81.57
48874;BME280;66155;46.204;5.220;2024-01-07T14:59:31;98317.38;;;3.20;81.47
48874;BME280;66155;46.204;5.220;2024-01-07T15:04:32;98333.03;;;3.19;81.15
48874;BME280;66155;46.204;5.220;2024-01-07T15:09:32;98325.13;;;3.25;81.47
48874;BME280;66155;46.204;5.220;2024-01-07T15:14:33;98333.78;;;3.20;81.33
48874;BME280;66155;46.204;5.220;2024-01-07T15:19:34;98335.78;;;3.19;81.72
48874;BME280;66155;46.204;5.220;2024-01-07T15:24:35;98367.88;;;3.15;81.61
48874;BME280;66155;46.204;5.220;2024-01-07T15:29:35;98332.66;;;3.17;81.60
48874;BME280;66155;46.204;5.220;2024-01-07T15:34:36;98340.53;;;3.12;81.81
48874;BME280;66155;46.204;5.220;2024-01-07T15:39:36;98352.75;;;3.04;82.61
48874;BME280;66155;46.204;5.220;2024-01-07T15:44:37;98348.09;;;3.01;82.74
48874;BME280;66155;46.204;5.220;2024-01-07T15:49:38;98364.19;;;2.95;82.72
48874;BME280;66155;46.204;5.220;2024-01-07T15:54:38;98348.53;;;2.96;83.09
48874;BME280;66155;46.204;5.220;2024-01-07T15:59:42;98353.56;;;3.01;82.11
48874;BME280;66155;46.204;5.220;2024-01-07T16:04:53;98351.28;;;2.96;82.86
48874;BME280;66155;46.204;5.220;2024-01-07T16:09:54;98362.63;;;2.94;83.02
48874;BME280;66155;46.204;5.220;2024-01-07T16:14:54;98363.47;;;2.91;83.08
48874;BME280;66155;46.204;5.220;2024-01-07T16:19:55;98360.25;;;2.96;83.03
48874;BME280;66155;46.204;5.220;2024-01-07T16:24:55;98372.41;;;2.95;82.62
48874;BME280;66155;46.204;5.220;2024-01-07T16:29:56;98361.84;;;2.94;83.18
48874;BME280;66155;46.204;5.220;2024-01-07T16:34:56;98364.56;;;2.97;82.63
48874;BME280;66155;46.204;5.220;2024-01-07T16:39:57;98361.47;;;2.95;82.83
48874;BME280;66155;46.204;5.220;2024-01-07T16:44:58;98376.28;;;2.98;82.46
48874;BME280;66155;46.204;5.220;2024-01-07T16:49:58;98368.84;;;2.98;82.69
48874;BME280;66155;46.204;5.220;2024-01-07T16:54:59;98378.28;;;2.94;83.26
48874;BME280;66155;46.204;5.220;2024-01-07T16:59:59;98378.31;;;2.90;83.14
48874;BME280;66155;46.204;5.220;2024-01-07T17:05:00;98384.13;;;2.92;82.66
48874;BME280;66155;46.204;5.220;2024-01-07T17:10:01;98395.84;;;2.93;82.88
48874;BME280;66155;46.204;5.220;2024-01-07T17:15:02;98392.34;;;2.92;82.72
48874;BME280;66155;46.204;5.220;2024-01-07T17:20:03;98388.81;;;2.95;82.46
48874;BME280;66155;46.204;5.220;2024-01-07T17:25:06;98393.84;;;2.97;82.46
48874;BME280;66155;46.204;5.220;2024-01-07T17:30:07;98400.84;;;3.01;82.23
48874;BME280;66155;46.204;5.220;2024-01-07T17:35:08;98411.44;;;2.99;82.51
48874;BME280;66155;46.204;5.220;2024-01-07T17:40:08;98412.63;;;2.98;82.99
48874;BME280;66155;46.204;5.220;2024-01-07T17:45:10;98411.44;;;2.96;82.71
48874;BME280;66155;46.204;5.220;2024-01-07T17:50:11;98404.75;;;3.00;82.56
48874;BME280;66155;46.204;5.220;2024-01-07T17:55:13;98405.97;;;2.99;83.10
48874;BME280;66155;46.204;5.220;2024-01-07T18:00:16;98416.88;;;3.03;82.55
48874;BME280;66155;46.204;5.220;2024-01-07T18:05:17;98416.88;;;3.03;82.54
48874;BME280;66155;46.204;5.220;2024-01-07T18:10:17;98411.00;;;3.01;82.56
48874;BME280;66155;46.204;5.220;2024-01-07T18:15:18;98406.72;;;3.00;82.55
48874;BME280;66155;46.204;5.220;2024-01-07T18:20:18;98403.66;;;2.94;82.86
48874;BME280;66155;46.204;5.220;2024-01-07T18:25:20;98415.75;;;2.97;82.69
48874;BME280;66155;46.204;5.220;2024-01-07T18:30:21;98403.66;;;2.94;82.78
48874;BME280;66155;46.204;5.220;2024-01-07T18:35:21;98417.66;;;3.00;82.62
48874;BME280;66155;46.204;5.220;2024-01-07T18:40:22;98407.88;;;3.02;82.63
48874;BME280;66155;46.204;5.220;2024-01-07T18:45:22;98412.94;;;3.04;82.49
48874;BME280;66155;46.204;5.220;2024-01-07T18:50:23;98412.94;;;3.04;82.47
48874;BME280;66155;46.204;5.220;2024-01-07T18:55:24;98405.94;;;3.03;82.49
48874;BME280;66155;46.204;5.220;2024-01-07T19:00:24;98426.25;;;3.02;82.39
48874;BME280;66155;46.204;5.220;2024-01-07T19:05:25;98416.91;;;2.99;83.00
48874;BME280;66155;46.204;5.220;2024-01-07T19:10:26;98423.47;;;3.05;82.15
48874;BME280;66155;46.204;5.220;2024-01-07T19:15:26;98418.03;;;3.02;82.28
48874;BME280;66155;46.204;5.220;2024-01-07T19:20:27;98426.66;;;3.00;82.66
48874;BME280;66155;46.204;5.220;2024-01-07T19:25:30;98444.63;;;3.01;82.97
48874;BME280;66155;46.204;5.220;2024-01-07T19:30:30;98430.94;;;3.01;82.40
48874;BME280;66155;46.204;5.220;2024-01-07T19:35:32;98437.19;;;3.02;82.58
48874;BME280;66155;46.204;5.220;2024-01-07T19:40:35;98448.91;;;3.02;82.19
48874;BME280;66155;46.204;5.220;2024-01-07T19:45:36;98443.41;;;3.06;82.38
48874;BME280;66155;46.204;5.220;2024-01-07T19:50:42;98446.94;;;3.06;82.09
48874;BME280;66155;46.204;5.220;2024-01-07T19:55:43;98437.16;;;3.05;81.83
48874;BME280;66155;46.204;5.220;2024-01-07T20:00:52;98444.22;;;3.03;81.55
48874;BME280;66155;46.204;5.220;2024-01-07T20:05:53;98457.44;;;3.08;81.46
48874;BME280;66155;46.204;5.220;2024-01-07T20:10:53;98439.03;;;3.12;81.30
48874;BME280;66155;46.204;5.220;2024-01-07T20:15:53;98446.03;;;3.16;80.80
48874;BME280;66155;46.204;5.220;2024-01-07T20:20:54;98442.94;;;3.14;81.06
48874;BME280;66155;46.204;5.220;2024-01-07T20:25:54;98435.50;;;3.15;80.94
48874;BME280;66155;46.204;5.220;2024-01-07T20:30:55;98440.25;;;3.11;80.19
48874;BME280;66155;46.204;5.220;2024-01-07T20:35:55;98428.47;;;3.14;80.43
48874;BME280;66155;46.204;5.220;2024-01-07T20:40:56;98436.28;;;3.15;80.37
48874;BME280;66155;46.204;5.220;2024-01-07T20:45:57;98444.84;;;3.17;79.88
48874;BME280;66155;46.204;5.220;2024-01-07T20:50:58;98465.66;;;3.11;79.27
48874;BME280;66155;46.204;5.220;2024-01-07T20:55:58;98450.72;;;3.16;79.39
48874;BME280;66155;46.204;5.220;2024-01-07T21:00:59;98447.19;;;3.19;79.39
48874;BME280;66155;46.204;5.220;2024-01-07T21:05:59;98467.09;;;3.23;79.52
48874;BME280;66155;46.204;5.220;2024-01-07T21:11:02;98468.25;;;3.22;79.29
48874;BME280;66155;46.204;5.220;2024-01-07T21:16:05;98456.19;;;3.19;79.07
48874;BME280;66155;46.204;5.220;2024-01-07T21:21:05;98456.91;;;3.23;78.93
48874;BME280;66155;46.204;5.220;2024-01-07T21:26:05;98461.63;;;3.23;77.88
48874;BME280;66155;46.204;5.220;2024-01-07T21:31:06;98462.00;;;3.21;77.45
48874;BME280;66155;46.204;5.220;2024-01-07T21:36:09;98466.75;;;3.17;78.06
48874;BME280;66155;46.204;5.220;2024-01-07T21:41:11;98483.25;;;3.10;76.61
48874;BME280;66155;46.204;5.220;2024-01-07T21:46:11;98460.88;;;3.19;77.96
48874;BME280;66155;46.204;5.220;2024-01-07T21:51:14;98446.09;;;3.09;77.63
48874;BME280;66155;46.204;5.220;2024-01-07T21:56:15;98444.94;;;3.10;77.04
48874;BME280;66155;46.204;5.220;2024-01-07T22:01:15;98461.75;;;3.09;76.94
48874;BME280;66155;46.204;5.220;2024-01-07T22:06:16;98456.69;;;3.07;76.98
48874;BME280;66155;46.204;5.220;2024-01-07T22:11:16;98454.75;;;3.04;77.16
48874;BME280;66155;46.204;5.220;2024-01-07T22:16:17;98463.75;;;3.05;76.53
48874;BME280;66155;46.204;5.220;2024-01-07T22:21:19;98477.44;;;3.01;76.90
48874;BME280;66155;46.204;5.220;2024-01-07T22:26:20;98475.84;;;3.04;76.48
48874;BME280;66155;46.204;5.220;2024-01-07T22:31:21;98471.59;;;3.03;76.39
48874;BME280;66155;46.204;5.220;2024-01-07T22:36:21;98484.84;;;3.04;76.64
48874;BME280;66155;46.204;5.220;2024-01-07T22:41:23;98497.34;;;3.05;76.89
48874;BME280;66155;46.204;5.220;2024-01-07T22:46:24;98488.78;;;3.00;76.34
48874;BME280;66155;46.204;5.220;2024-01-07T22:51:24;98500.97;;;2.95;75.37
48874;BME280;66155;46.204;5.220;2024-01-07T22:56:24;98499.72;;;3.00;76.25
48874;BME280;66155;46.204;5.220;2024-01-07T23:01:26;98500.50;;;3.00;75.88
48874;BME280;66155;46.204;5.220;2024-01-07T23:06:27;98499.41;;;2.94;76.13
48874;BME280;66155;46.204;5.220;2024-01-07T23:11:28;98495.13;;;2.93;75.96
48874;BME280;66155;46.204;5.220;2024-01-07T23:16:29;98494.00;;;2.87;75.55
48874;BME280;66155;46.204;5.220;2024-01-07T23:21:29;98495.16;;;2.90;76.01
48874;BME280;66155;46.204;5.220;2024-01-07T23:26:31;98507.25;;;2.89;75.78
48874;BME280;66155;46.204;5.220;2024-01-07T23:31:31;98508.06;;;2.86;75.29
48874;BME280;66155;46.204;5.220;2024-01-07T23:36:32;98510.06;;;2.81;74.39
48874;BME280;66155;46.204;5.220;2024-01-07T23:41:32;98515.53;;;2.81;75.85
48874;BME280;66155;46.204;5.220;2024-01-07T23:46:32;98510.44;;;2.80;75.53
48874;BME280;66155;46.204;5.220;2024-01-07T23:51:33;98507.78;;;2.73;75.04
48874;BME280;66155;46.204;5.220;2024-01-07T23:56:37;98507.41;;;2.71;75.37
